Attica, Kansas
Current Conditions -  °F | °C
As of 4:30 AM on Sunday 23 Nov 2014 (Local Time) from KAVK Reporting Station
Overcast Overcast  
Wind Chill: 50°   Ceiling: 900
Heat Index: 50°   Visibility: 10mi
Dew Point: 50°   Wind: 13mph
Humidity: 100%   Direction: 180°S
Pressure: 29.44"   Gusts: NA
Location:  37.24°N, 98.23°W
Report Text: KAVK 231030Z AUTO 18011KT 10SM OVC009 10/10 A2944 RMK AO2
Loading
Personal Weather Stations






























Interactive Weather Map New forecast layout! Learn more

10-Day Weather Forecast

Advertisements
Track Severe Weather on mobile